createdAt,value
2022-08-14T00:01:32.990Z,0.65
2022-08-14T00:03:35.242Z,0.70
2022-08-14T00:05:37.058Z,0.63
2022-08-14T00:07:41.948Z,0.90
2022-08-14T00:10:01.771Z,0.70
2022-08-14T00:12:23.932Z,0.60
2022-08-14T00:14:28.191Z,0.90
2022-08-14T00:16:41.320Z,0.90
2022-08-14T00:19:18.529Z,0.60
2022-08-14T00:21:11.350Z,0.77
2022-08-14T00:23:16.734Z,0.75
2022-08-14T00:25:19.391Z,0.50
2022-08-14T00:27:22.657Z,0.68
2022-08-14T00:29:27.231Z,0.65
2022-08-14T00:31:44.266Z,0.60
2022-08-14T00:33:51.683Z,0.68
2022-08-14T00:36:47.990Z,0.98
2022-08-14T00:38:18.419Z,1.00
2022-08-14T00:40:33.559Z,0.68
2022-08-14T00:42:56.054Z,0.60
2022-08-14T00:44:58.311Z,0.70
2022-08-14T00:47:10.875Z,1.05
2022-08-14T00:49:14.706Z,0.90
2022-08-14T00:51:16.621Z,0.70
2022-08-14T00:53:18.338Z,0.82
2022-08-14T00:55:23.376Z,0.80
2022-08-14T00:57:28.132Z,0.60
2022-08-14T00:59:31.485Z,1.08
2022-08-14T01:01:36.006Z,0.60
2022-08-14T01:03:39.621Z,1.02
2022-08-14T01:05:51.540Z,1.35
2022-08-14T01:07:57.862Z,1.35
2022-08-14T01:10:06.941Z,1.10
2022-08-14T01:12:10.742Z,1.38
2022-08-14T01:14:28.183Z,1.25
2022-08-14T01:16:33.048Z,1.10
2022-08-14T01:18:57.886Z,1.20
2022-08-14T01:21:08.876Z,1.42
2022-08-14T01:23:15.817Z,1.27
2022-08-14T01:25:20.347Z,1.40
2022-08-14T01:27:25.004Z,1.55
2022-08-14T01:29:59.349Z,1.20
2022-08-14T01:31:50.444Z,1.17
2022-08-14T01:36:22.803Z,1.15
2022-08-14T01:38:26.420Z,1.10
2022-08-14T01:40:40.652Z,1.40
2022-08-14T01:42:44.987Z,0.82
2022-08-14T01:44:54.357Z,1.30
2022-08-14T01:47:01.184Z,1.13
2022-08-14T01:49:06.355Z,1.05
2022-08-14T01:51:19.423Z,0.77
2022-08-14T01:53:22.484Z,0.95
2022-08-14T01:55:32.321Z,0.70
2022-08-14T01:57:49.605Z,1.42
2022-08-14T02:00:00.927Z,1.50
2022-08-14T02:02:19.599Z,0.90
2022-08-14T02:04:55.095Z,0.82
2022-08-14T02:06:47.895Z,0.85
2022-08-14T02:08:56.494Z,1.10
2022-08-14T02:11:22.058Z,1.60
2022-08-14T02:13:23.778Z,0.95
2022-08-14T02:15:26.144Z,1.30
2022-08-14T02:17:30.876Z,1.63
2022-08-14T02:19:35.634Z,1.92
2022-08-14T02:21:47.069Z,1.42
2022-08-14T02:23:54.543Z,1.00
2022-08-14T02:25:56.248Z,1.70
2022-08-14T02:28:23.505Z,1.67
2022-08-14T02:30:29.667Z,1.92
2022-08-14T02:32:45.769Z,1.70
2022-08-14T02:34:47.652Z,2.22
2022-08-14T02:37:05.953Z,1.83
2022-08-14T02:39:12.813Z,1.85
2022-08-14T02:41:16.753Z,1.55
2022-08-14T02:45:38.953Z,1.50
2022-08-14T02:47:47.691Z,1.55
2022-08-14T02:49:56.940Z,2.05
2022-08-14T02:51:58.927Z,1.65
2022-08-14T02:54:09.832Z,1.75
2022-08-14T02:56:30.912Z,1.08
2022-08-14T02:58:47.406Z,1.40
2022-08-14T03:00:50.008Z,1.30
2022-08-14T03:02:59.089Z,1.40
2022-08-14T03:05:01.361Z,0.98
2022-08-14T03:07:07.478Z,1.38
2022-08-14T03:09:14.663Z,1.23
2022-08-14T03:11:17.066Z,0.73
2022-08-14T03:13:21.640Z,1.48
2022-08-14T03:15:23.735Z,1.58
2022-08-14T03:17:31.880Z,1.08
2022-08-14T03:19:42.914Z,2.28
2022-08-14T03:21:45.186Z,2.00
2022-08-14T03:23:49.371Z,2.28
2022-08-14T03:25:51.252Z,2.55
2022-08-14T03:27:58.755Z,2.25
2022-08-14T03:30:23.256Z,1.85
2022-08-14T03:32:44.524Z,1.90
2022-08-14T03:34:55.667Z,1.33
2022-08-14T03:37:38.432Z,1.55
2022-08-14T03:39:24.215Z,1.90
2022-08-14T03:41:28.165Z,2.20
2022-08-14T03:43:35.021Z,2.00
2022-08-14T03:45:48.766Z,2.13
2022-08-14T03:47:56.079Z,2.28
2022-08-14T03:50:03.787Z,1.88
2022-08-14T03:52:17.794Z,1.95
2022-08-14T03:54:31.004Z,1.83
2022-08-14T03:56:32.974Z,2.05
2022-08-14T03:58:38.060Z,1.55
2022-08-14T04:00:44.611Z,1.63
2022-08-14T04:02:47.847Z,2.25
2022-08-14T04:04:55.171Z,2.25
2022-08-14T04:07:10.844Z,1.80
2022-08-14T04:09:18.903Z,2.30
2022-08-14T04:11:23.300Z,2.25
2022-08-14T04:15:56.778Z,2.00
2022-08-14T04:17:56.366Z,2.28
2022-08-14T04:20:07.367Z,2.22
2022-08-14T04:22:13.499Z,1.45
2022-08-14T04:24:18.480Z,2.15
2022-08-14T04:26:27.249Z,1.63
2022-08-14T04:31:06.505Z,1.77
2022-08-14T04:33:17.112Z,2.17
2022-08-14T04:35:23.479Z,1.38
2022-08-14T04:37:45.478Z,2.42
2022-08-14T04:40:05.876Z,1.80
2022-08-14T04:42:29.484Z,2.03
2022-08-14T04:44:36.718Z,2.15
2022-08-14T04:46:56.450Z,2.13
2022-08-14T04:48:59.865Z,1.98
2022-08-14T04:51:12.477Z,1.25
2022-08-14T04:53:26.552Z,2.00
2022-08-14T04:55:37.429Z,2.20
2022-08-14T04:57:39.413Z,1.88
2022-08-14T04:59:42.857Z,1.88
2022-08-14T05:01:49.145Z,1.80
2022-08-14T05:03:54.765Z,1.70
2022-08-14T05:06:01.288Z,2.03
2022-08-14T05:08:12.242Z,2.72
2022-08-14T05:10:53.463Z,3.22
2022-08-14T05:15:16.199Z,2.30
2022-08-14T05:17:21.621Z,2.50
2022-08-14T05:19:29.123Z,2.40
2022-08-14T05:21:59.585Z,2.58
2022-08-14T05:23:54.703Z,3.03
2022-08-14T05:26:02.052Z,2.13
2022-08-14T05:28:16.216Z,2.15
2022-08-14T05:30:19.991Z,2.05
2022-08-14T05:32:23.231Z,2.67
2022-08-14T05:34:31.924Z,2.45
2022-08-14T05:36:34.739Z,2.50
2022-08-14T05:38:42.151Z,2.10
2022-08-14T05:40:47.030Z,2.17
2022-08-14T05:42:52.630Z,2.72
2022-08-14T05:44:56.868Z,2.40
2022-08-14T05:46:59.375Z,2.60
2022-08-14T05:49:02.791Z,2.40
2022-08-14T05:51:06.885Z,2.45
2022-08-14T05:53:09.658Z,2.05
2022-08-14T05:55:12.050Z,3.95
2022-08-14T05:57:14.321Z,3.03
2022-08-14T05:59:17.112Z,3.35
2022-08-14T06:01:21.485Z,2.85
2022-08-14T06:03:26.477Z,3.22
2022-08-14T06:05:29.463Z,2.78
2022-08-14T06:07:31.354Z,2.65
2022-08-14T06:09:35.724Z,2.92
2022-08-14T06:11:44.536Z,2.55
2022-08-14T06:13:51.767Z,2.85
2022-08-14T06:17:59.867Z,2.60
2022-08-14T06:20:02.228Z,3.05
2022-08-14T06:22:06.312Z,2.38
2022-08-14T06:24:18.841Z,2.50
2022-08-14T06:26:22.155Z,2.55
2022-08-14T06:28:27.988Z,2.15
2022-08-14T06:30:46.052Z,3.20
2022-08-14T06:32:54.419Z,2.28
2022-08-14T06:35:02.915Z,3.28
2022-08-14T06:37:12.344Z,2.58
2022-08-14T06:39:14.262Z,2.78
2022-08-14T06:41:20.924Z,2.40
2022-08-14T06:43:45.138Z,2.08
2022-08-14T06:45:54.377Z,2.25
2022-08-14T06:48:00.906Z,2.53
2022-08-14T06:50:08.897Z,2.40
2022-08-14T06:52:15.287Z,2.47
2022-08-14T06:54:18.250Z,3.10
2022-08-14T06:56:20.032Z,5.90
2022-08-14T06:58:25.073Z,3.78
2022-08-14T07:00:31.665Z,2.67
2022-08-14T07:05:20.794Z,2.35
2022-08-14T07:07:23.361Z,2.47
2022-08-14T07:09:27.904Z,1.80
2022-08-14T07:11:30.001Z,2.63
2022-08-14T07:13:32.080Z,2.05
2022-08-14T07:15:39.863Z,2.53
2022-08-14T07:17:52.010Z,1.98
2022-08-14T07:19:59.762Z,1.90
2022-08-14T07:22:05.551Z,2.58
2022-08-14T07:24:26.102Z,2.05
2022-08-14T07:26:33.006Z,2.17
2022-08-14T07:28:43.516Z,2.30
2022-08-14T07:30:51.396Z,2.45
2022-08-14T07:32:53.639Z,1.80
2022-08-14T07:34:57.039Z,2.15
2022-08-14T07:37:00.966Z,2.38
2022-08-14T07:39:13.190Z,1.95
2022-08-14T07:41:16.426Z,1.80
2022-08-14T07:43:19.398Z,1.73
2022-08-14T07:45:23.766Z,2.88
2022-08-14T07:47:25.759Z,2.03
2022-08-14T07:49:28.152Z,1.58
2022-08-14T07:51:37.755Z,1.52
2022-08-14T07:53:41.230Z,1.60
2022-08-14T07:55:43.201Z,2.20
2022-08-14T07:57:47.453Z,2.03
2022-08-14T07:59:50.586Z,1.95
2022-08-14T08:04:04.045Z,1.27
2022-08-14T08:06:19.291Z,1.40
2022-08-14T08:08:26.981Z,1.83
2022-08-14T08:11:01.661Z,1.65
2022-08-14T08:12:54.858Z,1.88
2022-08-14T08:15:03.462Z,1.83
2022-08-14T08:17:09.923Z,1.87
2022-08-14T08:19:14.172Z,1.88
2022-08-14T08:21:18.011Z,1.40
2022-08-14T08:23:23.403Z,1.88
2022-08-14T08:25:39.854Z,1.27
2022-08-14T08:27:44.915Z,1.77
2022-08-14T08:29:50.719Z,1.52
2022-08-14T08:31:52.947Z,1.45
2022-08-14T08:33:54.687Z,0.88
2022-08-14T08:36:01.447Z,1.52
2022-08-14T08:39:15.789Z,1.55
2022-08-14T08:40:42.335Z,1.25
2022-08-14T08:42:44.966Z,1.20
2022-08-14T08:44:54.441Z,1.27
2022-08-14T08:47:01.486Z,1.27
2022-08-14T08:49:05.724Z,1.35
2022-08-14T08:51:09.591Z,0.60
2022-08-14T08:53:13.507Z,1.23
2022-08-14T08:55:16.455Z,1.02
2022-08-14T08:57:21.556Z,1.17
2022-08-14T08:59:30.922Z,0.93
2022-08-14T09:01:33.477Z,0.88
2022-08-14T09:03:40.792Z,1.05
2022-08-14T09:05:56.595Z,0.88
2022-08-14T09:08:30.407Z,1.00
2022-08-14T09:10:34.749Z,0.88
2022-08-14T09:12:39.521Z,1.05
2022-08-14T09:14:51.229Z,0.90
2022-08-14T09:16:53.733Z,0.70
2022-08-14T09:18:55.875Z,0.95
2022-08-14T09:20:58.858Z,0.77
2022-08-14T09:23:01.423Z,0.98
2022-08-14T09:25:07.175Z,0.85
2022-08-14T09:27:16.579Z,0.70
2022-08-14T09:29:28.837Z,0.80
2022-08-14T09:31:43.068Z,0.60
2022-08-14T09:34:26.959Z,0.50
2022-08-14T09:36:37.206Z,0.90
2022-08-14T09:39:21.401Z,0.60
2022-08-14T09:42:21.795Z,0.80
2022-08-14T09:44:06.701Z,0.68
2022-08-14T09:46:08.924Z,0.70
2022-08-14T09:48:27.877Z,1.05
2022-08-14T09:50:51.744Z,0.85
2022-08-14T09:53:05.549Z,0.70
2022-08-14T09:55:21.534Z,1.10
2022-08-14T09:57:30.312Z,0.73
2022-08-14T09:59:50.344Z,0.70
2022-08-14T10:01:53.430Z,0.90
2022-08-14T10:03:56.930Z,0.70
2022-08-14T10:06:19.239Z,0.60
2022-08-14T10:08:26.145Z,0.63
2022-08-14T10:10:40.121Z,0.90
2022-08-14T10:12:45.829Z,0.90
2022-08-14T10:14:53.523Z,0.80
2022-08-14T10:16:57.313Z,0.85
2022-08-14T10:19:07.458Z,0.93
2022-08-14T10:23:22.045Z,0.50
2022-08-14T10:25:26.785Z,0.68
2022-08-14T10:27:29.168Z,0.70
2022-08-14T10:29:42.739Z,1.10
2022-08-14T10:31:56.390Z,0.77
2022-08-14T10:34:18.584Z,0.93
2022-08-14T10:36:37.019Z,0.90
2022-08-14T10:41:48.645Z,0.57
2022-08-14T10:44:21.096Z,0.80
2022-08-14T10:47:39.808Z,1.15
2022-08-14T10:49:04.248Z,0.65
2022-08-14T10:51:08.618Z,0.70
2022-08-14T10:53:11.020Z,0.50
2022-08-14T10:55:19.440Z,0.90
2022-08-14T10:57:27.406Z,0.60
2022-08-14T11:00:00.605Z,0.70
2022-08-14T11:02:02.460Z,1.02
2022-08-14T11:04:06.011Z,0.70
2022-08-14T11:06:17.244Z,1.15
2022-08-14T11:08:31.823Z,0.90
2022-08-14T11:10:54.552Z,1.08
2022-08-14T11:12:59.260Z,0.80
2022-08-14T11:15:03.036Z,0.98
2022-08-14T11:17:09.496Z,5.80
2022-08-14T11:19:13.580Z,0.82
2022-08-14T11:21:18.743Z,1.00
2022-08-14T11:23:38.217Z,1.00
2022-08-14T11:25:53.406Z,1.00
2022-08-14T11:27:57.249Z,0.70
2022-08-14T11:30:50.486Z,1.10
2022-08-14T11:32:32.739Z,0.60
2022-08-14T11:34:45.206Z,0.45
2022-08-14T11:37:04.488Z,0.60
2022-08-14T11:39:10.682Z,0.60
2022-08-14T11:41:18.835Z,1.02
2022-08-14T11:43:29.048Z,1.02
2022-08-14T11:45:37.114Z,0.77
2022-08-14T11:47:44.066Z,0.80
2022-08-14T11:50:14.323Z,0.85
2022-08-14T11:52:40.266Z,0.65
2022-08-14T11:54:43.754Z,0.60
2022-08-14T11:56:46.005Z,0.70
2022-08-14T11:58:55.529Z,0.57
2022-08-14T12:01:09.870Z,0.65
2022-08-14T12:03:51.961Z,0.50
2022-08-14T12:06:29.025Z,0.93
2022-08-14T12:08:41.287Z,0.63
2022-08-14T12:10:44.912Z,0.60
2022-08-14T12:12:50.284Z,0.50
2022-08-14T12:15:33.632Z,0.30
2022-08-14T12:17:53.350Z,0.40
2022-08-14T12:20:10.227Z,0.38
2022-08-14T12:22:37.531Z,0.57
2022-08-14T12:25:09.994Z,0.38
2022-08-14T12:27:18.475Z,0.70
2022-08-14T12:29:34.881Z,0.40
2022-08-14T12:31:44.917Z,0.30
2022-08-14T12:37:21.865Z,0.50
2022-08-14T12:42:34.552Z,0.50
2022-08-14T12:44:48.933Z,0.38
2022-08-14T12:46:51.382Z,0.30
2022-08-14T12:48:54.290Z,0.47
2022-08-14T12:50:57.753Z,0.40
2022-08-14T12:55:22.885Z,0.50
2022-08-14T12:57:35.549Z,0.40
2022-08-14T12:59:43.228Z,0.60
2022-08-14T13:02:00.178Z,0.40
2022-08-14T13:04:17.119Z,0.30
2022-08-14T13:06:23.171Z,0.40
2022-08-14T13:08:33.418Z,0.30
2022-08-14T13:10:51.493Z,0.30
2022-08-14T13:13:15.929Z,0.20
2022-08-14T13:15:19.389Z,0.30
2022-08-14T13:17:22.924Z,0.30
2022-08-14T13:19:28.335Z,0.30
2022-08-14T13:21:31.694Z,0.20
2022-08-14T13:23:55.797Z,0.20
2022-08-14T13:26:00.178Z,0.28
2022-08-14T13:28:03.045Z,0.30
2022-08-14T13:30:10.464Z,0.30
2022-08-14T13:32:13.558Z,0.30
2022-08-14T13:34:15.788Z,0.20
2022-08-14T13:36:23.979Z,0.20
2022-08-14T13:38:28.012Z,0.47
2022-08-14T13:40:30.328Z,0.20
2022-08-14T13:42:32.290Z,0.22
2022-08-14T13:44:36.134Z,0.20
2022-08-14T13:46:38.475Z,0.60
2022-08-14T13:48:40.220Z,0.20
2022-08-14T13:50:48.693Z,0.30
2022-08-14T13:52:55.426Z,0.20
2022-08-14T13:55:01.254Z,0.30
2022-08-14T13:57:03.872Z,0.30
2022-08-14T13:59:06.855Z,0.30
2022-08-14T14:01:09.289Z,0.40
2022-08-14T14:03:11.560Z,0.20
2022-08-14T14:05:18.935Z,0.35
2022-08-14T14:07:23.995Z,0.43
2022-08-14T14:09:50.783Z,0.30
2022-08-14T14:11:55.863Z,0.40
2022-08-14T14:14:01.924Z,0.30
2022-08-14T14:16:09.499Z,0.30
2022-08-14T14:18:29.790Z,0.40
2022-08-14T14:20:36.501Z,0.32
2022-08-14T14:23:01.340Z,0.50
2022-08-14T14:25:05.122Z,0.32
2022-08-14T14:27:37.304Z,0.40
2022-08-14T14:29:34.595Z,0.47
2022-08-14T14:31:51.518Z,0.20
2022-08-14T14:33:59.415Z,0.40
2022-08-14T14:36:02.728Z,0.40
2022-08-14T14:38:08.829Z,0.30
2022-08-14T14:40:52.896Z,0.38
2022-08-14T14:42:41.614Z,0.45
2022-08-14T14:44:46.659Z,0.40
2022-08-14T14:46:50.111Z,0.30
2022-08-14T14:48:54.715Z,0.60
2022-08-14T14:51:01.272Z,0.30
2022-08-14T14:53:12.767Z,0.68
2022-08-14T14:55:17.223Z,0.55
2022-08-14T14:57:19.361Z,0.40
2022-08-14T14:59:21.163Z,0.30
2022-08-14T15:01:23.850Z,0.40
2022-08-14T15:03:26.268Z,0.40
2022-08-14T15:05:30.501Z,0.50
2022-08-14T15:07:36.625Z,0.40
2022-08-14T15:09:38.490Z,0.47
2022-08-14T15:11:41.845Z,0.50
2022-08-14T15:13:53.082Z,0.40
2022-08-14T15:15:55.971Z,0.40
2022-08-14T15:17:58.944Z,0.30
2022-08-14T15:20:03.699Z,0.55
2022-08-14T15:22:06.697Z,0.40
2022-08-14T15:24:09.573Z,0.50
2022-08-14T15:26:31.042Z,0.25
2022-08-14T15:28:38.873Z,0.40
2022-08-14T15:30:42.299Z,0.32
2022-08-14T15:32:44.431Z,0.30
2022-08-14T15:34:51.892Z,0.40
2022-08-14T15:36:54.875Z,0.40
2022-08-14T15:38:59.115Z,0.30
2022-08-14T15:41:05.101Z,0.30
2022-08-14T15:43:12.840Z,0.30
2022-08-14T15:45:17.122Z,0.30
2022-08-14T15:47:21.925Z,0.30
2022-08-14T15:49:34.580Z,0.35
2022-08-14T15:51:36.858Z,0.45
2022-08-14T15:53:46.732Z,0.30
2022-08-14T15:55:54.285Z,0.40
2022-08-14T15:58:03.498Z,0.40
2022-08-14T16:00:43.463Z,0.30
2022-08-14T16:02:50.454Z,0.40
2022-08-14T16:04:53.121Z,0.40
2022-08-14T16:06:56.413Z,0.40
2022-08-14T16:09:07.727Z,0.40
2022-08-14T16:11:15.083Z,0.40
2022-08-14T16:15:53.162Z,0.40
2022-08-14T16:17:56.193Z,0.60
2022-08-14T16:20:02.409Z,0.40
2022-08-14T16:22:58.469Z,0.50
2022-08-14T16:24:36.057Z,0.50
2022-08-14T16:27:00.254Z,0.52
2022-08-14T16:29:04.704Z,0.50
2022-08-14T16:31:07.132Z,0.50
2022-08-14T16:33:56.382Z,0.40
2022-08-14T16:35:43.028Z,0.40
2022-08-14T16:37:57.391Z,0.40
2022-08-14T16:40:00.465Z,0.52
2022-08-14T16:42:38.284Z,0.40
2022-08-14T16:44:33.650Z,0.35
2022-08-14T16:46:43.930Z,0.52
2022-08-14T16:48:55.206Z,0.43
2022-08-14T16:50:59.407Z,0.50
2022-08-14T16:53:04.482Z,0.50
2022-08-14T16:55:11.869Z,0.40
2022-08-14T16:57:25.805Z,0.50
2022-08-14T16:59:30.694Z,0.88
2022-08-14T17:02:00.727Z,0.57
2022-08-14T17:04:25.081Z,0.40
2022-08-14T17:06:36.699Z,0.50
2022-08-14T17:08:46.502Z,0.60
2022-08-14T17:10:51.634Z,0.93
2022-08-14T17:13:17.607Z,0.50
2022-08-14T17:15:19.473Z,0.45
2022-08-14T17:17:41.503Z,0.60
2022-08-14T17:19:43.876Z,0.88
2022-08-14T17:21:46.785Z,0.70
2022-08-14T17:23:53.229Z,0.68
2022-08-14T17:25:55.548Z,0.82
2022-08-14T17:28:49.940Z,0.47
2022-08-14T17:30:59.310Z,0.60
2022-08-14T17:33:13.122Z,0.65
2022-08-14T17:35:16.509Z,0.43
2022-08-14T17:37:39.197Z,0.60
2022-08-14T17:40:15.191Z,0.82
2022-08-14T17:42:32.688Z,0.57
2022-08-14T17:44:45.209Z,0.60
2022-08-14T17:46:57.190Z,0.90
2022-08-14T17:49:16.921Z,1.05
2022-08-14T17:51:23.682Z,1.20
2022-08-14T17:56:01.111Z,1.00
2022-08-14T17:57:58.780Z,1.20
2022-08-14T18:00:03.996Z,1.00
2022-08-14T18:02:16.739Z,0.60
2022-08-14T18:06:38.660Z,0.70
2022-08-14T18:08:55.369Z,1.27
2022-08-14T18:11:00.037Z,0.90
2022-08-14T18:13:02.607Z,0.80
2022-08-14T18:15:16.789Z,0.73
2022-08-14T18:17:23.458Z,1.02
2022-08-14T18:19:27.164Z,1.10
2022-08-14T18:21:41.537Z,0.90
2022-08-14T18:23:51.771Z,0.85
2022-08-14T18:25:54.785Z,0.60
2022-08-14T18:27:57.610Z,0.60
2022-08-14T18:30:31.212Z,0.75
2022-08-14T18:32:32.063Z,1.40
2022-08-14T18:34:38.313Z,1.50
2022-08-14T18:36:57.665Z,1.05
2022-08-14T18:39:28.835Z,1.05
2022-08-14T18:41:36.386Z,1.02
2022-08-14T18:43:58.905Z,1.08
2022-08-14T18:46:01.768Z,0.85
2022-08-14T18:48:19.051Z,1.05
2022-08-14T18:50:30.920Z,0.68
2022-08-14T18:54:37.446Z,0.80
2022-08-14T18:57:03.907Z,0.70
2022-08-14T18:59:35.454Z,0.60
2022-08-14T19:01:37.825Z,0.90
2022-08-14T19:03:46.362Z,0.82
2022-08-14T19:05:48.675Z,0.52
2022-08-14T19:10:16.989Z,0.57
2022-08-14T19:12:53.015Z,0.63
2022-08-14T19:15:08.556Z,1.15
2022-08-14T19:18:14.283Z,0.52
2022-08-14T19:20:09.682Z,1.40
2022-08-14T19:22:29.952Z,0.88
2022-08-14T19:24:45.240Z,0.90
2022-08-14T19:27:13.166Z,0.63
2022-08-14T19:29:36.290Z,0.65
2022-08-14T19:31:42.640Z,0.60
2022-08-14T19:34:02.729Z,0.90
2022-08-14T19:36:31.463Z,0.60
2022-08-14T19:38:44.903Z,0.73
2022-08-14T19:40:46.847Z,0.60
2022-08-14T19:42:51.890Z,0.82
2022-08-14T19:45:00.455Z,0.60
2022-08-14T19:47:04.964Z,0.77
2022-08-14T19:49:10.463Z,0.73
2022-08-14T19:51:13.541Z,0.45
2022-08-14T19:53:17.304Z,0.55
2022-08-14T19:55:20.667Z,0.50
2022-08-14T19:57:36.194Z,0.85
2022-08-14T20:01:59.682Z,0.60
2022-08-14T20:04:03.521Z,0.50
2022-08-14T20:06:05.948Z,0.50
2022-08-14T20:11:01.313Z,0.93
2022-08-14T20:11:05.839Z,0.45
2022-08-14T20:13:00.509Z,0.60
2022-08-14T20:15:06.910Z,0.50
2022-08-14T20:17:15.652Z,0.60
2022-08-14T20:19:37.996Z,0.70
2022-08-14T20:21:58.417Z,0.90
2022-08-14T20:24:30.365Z,0.43
2022-08-14T20:26:36.809Z,0.90
2022-08-14T20:28:40.480Z,1.05
2022-08-14T20:31:20.213Z,0.63
2022-08-14T20:33:24.476Z,1.08
2022-08-14T20:35:44.131Z,1.35
2022-08-14T20:37:46.254Z,1.48
2022-08-14T20:40:23.509Z,1.10
2022-08-14T20:42:50.395Z,1.10
2022-08-14T20:45:13.348Z,1.10
2022-08-14T20:47:16.423Z,1.38
2022-08-14T20:49:19.238Z,1.58
2022-08-14T20:51:23.952Z,0.90
2022-08-14T20:53:35.437Z,1.30
2022-08-14T20:55:41.753Z,1.23
2022-08-14T20:57:47.732Z,1.17
2022-08-14T20:59:57.255Z,1.13
2022-08-14T21:02:29.475Z,1.63
2022-08-14T21:04:35.549Z,1.40
2022-08-14T21:07:24.440Z,1.33
2022-08-14T21:09:16.432Z,2.15
2022-08-14T21:11:22.910Z,1.92
2022-08-14T21:14:19.326Z,1.15
2022-08-14T21:18:00.445Z,0.90
2022-08-14T21:20:26.191Z,0.88
2022-08-14T21:22:26.826Z,0.85
2022-08-14T21:24:39.712Z,1.02
2022-08-14T21:26:52.511Z,1.02
2022-08-14T21:29:11.909Z,1.00
2022-08-14T21:31:15.199Z,0.85
2022-08-14T21:33:20.494Z,1.10
2022-08-14T21:35:24.296Z,1.30
2022-08-14T21:37:26.356Z,0.82
2022-08-14T21:39:31.740Z,1.25
2022-08-14T21:44:18.331Z,0.90
2022-08-14T21:46:22.627Z,1.05
2022-08-14T21:48:29.830Z,1.25
2022-08-14T21:50:56.599Z,0.85
2022-08-14T21:53:01.092Z,1.05
2022-08-14T21:55:09.688Z,1.33
2022-08-14T21:57:20.870Z,0.82
2022-08-14T21:59:43.605Z,1.27
2022-08-14T22:02:01.582Z,1.13
2022-08-14T22:04:32.553Z,1.08
2022-08-14T22:06:28.986Z,1.20
2022-08-14T22:08:31.203Z,1.13
2022-08-14T22:10:35.666Z,1.20
2022-08-14T22:12:57.943Z,1.33
2022-08-14T22:15:01.721Z,2.22
2022-08-14T22:17:13.126Z,1.30
2022-08-14T22:19:20.913Z,0.93
2022-08-14T22:21:23.044Z,1.02
2022-08-14T22:23:26.236Z,1.33
2022-08-14T22:25:34.030Z,1.40
2022-08-14T22:27:55.748Z,1.15
2022-08-14T22:29:58.731Z,1.13
2022-08-14T22:32:00.551Z,1.00
2022-08-14T22:34:10.383Z,0.82
2022-08-14T22:36:42.234Z,1.23
2022-08-14T22:38:49.625Z,1.35
2022-08-14T22:41:24.874Z,1.42
2022-08-14T22:43:15.328Z,1.55
2022-08-14T22:45:17.939Z,1.50
2022-08-14T22:47:24.745Z,1.10
2022-08-14T22:50:31.017Z,1.10
2022-08-14T22:51:52.792Z,1.23
2022-08-14T22:53:55.970Z,1.50
2022-08-14T22:55:58.720Z,1.30
2022-08-14T22:58:02.032Z,0.90
2022-08-14T23:00:09.949Z,1.13
2022-08-14T23:02:22.239Z,1.23
2022-08-14T23:04:35.096Z,1.60
2022-08-14T23:09:36.460Z,1.10
2022-08-14T23:11:29.528Z,1.50
2022-08-14T23:13:32.907Z,1.13
2022-08-14T23:15:37.442Z,1.42
2022-08-14T23:17:40.479Z,1.27
2022-08-14T23:19:45.158Z,1.13
2022-08-14T23:21:48.499Z,1.15
2022-08-14T23:23:51.487Z,2.00
2022-08-14T23:26:47.116Z,1.67
2022-08-14T23:28:34.417Z,1.98
2022-08-14T23:30:48.936Z,1.40
2022-08-14T23:32:53.860Z,1.73
2022-08-14T23:34:55.839Z,1.33
2022-08-14T23:36:57.981Z,1.83
2022-08-14T23:39:00.271Z,1.30
2022-08-14T23:41:04.195Z,1.63
2022-08-14T23:43:14.824Z,1.50
2022-08-14T23:45:18.273Z,2.40
2022-08-14T23:47:51.898Z,1.50
2022-08-14T23:50:00.366Z,1.90
2022-08-14T23:52:50.707Z,1.77
2022-08-14T23:54:48.494Z,1.77
2022-08-14T23:56:49.832Z,2.60
2022-08-14T23:59:04.559Z,1.80
